Time;durP1;ratioP1;P1;durP2;ratioP2;P2;SDS_P1;SDS_P2;PMS_P1;PMS_P2;Temp;Humidity;BMP_temperature;BMP_pressure;BME280_temperature;BME280_humidity;BME280_pressure;Samples;Min_cycle;Max_cycle;Signal;HPM_P1;HPM_P2
2022/01/19 00:01:23;;;;;;;100.97;34.97;;;4.80;99.90;;;;;;5017166;28;20053;-92
2022/01/19 00:03:49;;;;;;;101.88;33.72;;;5.00;99.90;;;;;;5016993;28;20057;-91
2022/01/19 00:06:15;;;;;;;104.60;32.65;;;4.80;99.90;;;;;;5033305;28;20049;-91
2022/01/19 00:08:41;;;;;;;89.38;29.98;;;4.80;99.90;;;;;;5016866;28;20093;-92
2022/01/19 00:11:07;;;;;;;86.85;30.40;;;4.80;99.90;;;;;;5017403;28;20053;-92
2022/01/19 00:13:33;;;;;;;97.20;30.10;;;4.80;99.90;;;;;;5039936;28;20088;-92
2022/01/19 00:15:59;;;;;;;87.50;28.17;;;4.90;99.90;;;;;;5039552;28;20135;-92
2022/01/19 00:18:25;;;;;;;91.07;29.20;;;4.70;99.90;;;;;;5023253;28;20150;-91
2022/01/19 00:20:53;;;;;;;89.85;30.13;;;4.70;99.90;;;;;;5023127;28;20144;-91
2022/01/19 00:23:20;;;;;;;85.00;30.40;;;4.60;99.90;;;;;;5022683;28;20503;-91
2022/01/19 00:25:50;;;;;;;93.85;29.77;;;4.50;99.90;;;;;;5039260;28;20056;-91
2022/01/19 00:28:16;;;;;;;90.25;30.35;;;4.70;99.90;;;;;;5039945;28;20518;-92
2022/01/19 00:30:44;;;;;;;100.10;30.27;;;4.70;99.90;;;;;;5039700;28;20049;-91
2022/01/19 00:33:10;;;;;;;90.63;28.02;;;4.60;99.90;;;;;;5023424;28;20064;-92
2022/01/19 00:35:36;;;;;;;92.15;28.50;;;4.80;99.90;;;;;;5040260;28;20061;-92
2022/01/19 00:38:09;;;;;;;90.10;29.02;;;4.70;99.90;;;;;;5022839;28;20120;-91
2022/01/19 00:40:42;;;;;;;97.18;29.33;;;4.70;99.90;;;;;;5023210;28;20402;-92
2022/01/19 00:43:08;;;;;;;96.90;30.10;;;4.60;99.90;;;;;;5039071;28;20053;-91
2022/01/19 00:45:34;;;;;;;84.28;27.55;;;4.60;99.90;;;;;;5039342;28;20056;-92
2022/01/19 00:48:00;;;;;;;95.28;29.88;;;4.60;99.90;;;;;;5039681;28;20049;-92
2022/01/19 00:50:28;;;;;;;97.25;29.05;;;4.60;99.90;;;;;;5039381;28;20049;-91
2022/01/19 00:52:55;;;;;;;108.28;30.27;;;4.60;99.90;;;;;;5039150;28;20053;-92
2022/01/19 00:55:22;;;;;;;109.13;30.48;;;4.50;99.90;;;;;;5022925;28;20116;-91
2022/01/19 00:57:48;;;;;;;107.88;30.02;;;4.50;99.90;;;;;;5039574;28;20060;-92
2022/01/19 01:00:18;;;;;;;97.65;29.42;;;4.60;99.90;;;;;;5039368;28;20068;-92
2022/01/19 01:02:44;;;;;;;107.78;31.27;;;4.40;99.90;;;;;;5039284;28;20049;-92
2022/01/19 01:08:51;;;;;;;106.03;29.07;;;4.30;99.90;;;;;;5039934;28;20035;-91
2022/01/19 01:11:17;;;;;;;99.22;28.45;;;4.20;99.90;;;;;;5023034;28;20410;-91
2022/01/19 01:19:01;;;;;;;105.90;29.08;;;4.30;99.90;;;;;;5038943;28;20147;-92
2022/01/19 01:21:27;;;;;;;108.63;30.83;;;4.50;99.90;;;;;;5038960;28;20119;-92
2022/01/19 01:23:53;;;;;;;111.85;31.15;;;4.50;99.90;;;;;;5035854;28;20073;-91
2022/01/19 01:26:18;;;;;;;103.28;29.67;;;4.40;99.90;;;;;;5035447;28;20410;-93
2022/01/19 01:28:44;;;;;;;114.82;30.52;;;4.30;99.90;;;;;;5036121;28;20084;-92
2022/01/19 01:31:10;;;;;;;110.30;30.77;;;4.30;99.90;;;;;;5036039;28;20141;-91
2022/01/19 01:33:36;;;;;;;118.25;31.25;;;4.30;99.90;;;;;;5019271;28;20060;-92
2022/01/19 01:36:03;;;;;;;119.63;30.65;;;4.70;99.90;;;;;;5019432;28;20049;-91
2022/01/19 01:38:29;;;;;;;110.70;30.17;;;4.30;99.90;;;;;;5035671;28;20054;-92
2022/01/19 01:40:54;;;;;;;124.30;32.08;;;4.50;99.90;;;;;;5019296;28;20054;-91
2022/01/19 01:43:23;;;;;;;122.95;32.60;;;4.30;99.90;;;;;;5035677;28;20103;-91
2022/01/19 01:45:54;;;;;;;121.97;30.25;;;4.40;99.90;;;;;;5035833;28;20453;-91
2022/01/19 01:48:23;;;;;;;124.68;30.73;;;4.30;99.90;;;;;;5019301;28;20050;-91
2022/01/19 01:53:35;;;;;;;124.82;30.17;;;4.20;99.90;;;;;;5035526;28;20111;-92
2022/01/19 01:56:08;;;;;;;132.75;31.63;;;4.20;99.90;;;;;;5018706;28;20061;-91
2022/01/19 01:58:39;;;;;;;181.75;32.70;;;4.20;99.90;;;;;;5035406;28;20061;-91
2022/01/19 02:01:07;;;;;;;;;;;4.20;99.90;;;;;;5035601;28;20050;-91
2022/01/19 02:04:23;;;;;;;156.68;30.60;;;4.20;99.90;;;;;;5018485;28;19925;-91
2022/01/19 02:09:37;;;;;;;150.68;32.15;;;4.00;99.90;;;;;;5035313;28;20111;-91
2022/01/19 02:23:38;;;;;;;139.05;31.33;;;4.10;99.90;;;;;;5034392;28;20072;-91
2022/01/19 02:26:05;;;;;;;200.05;33.33;;;4.00;99.90;;;;;;5033399;28;20046;-91
2022/01/19 02:42:16;;;;;;;291.67;36.05;;;4.00;99.90;;;;;;5036793;28;20060;-92
2022/01/19 02:49:46;;;;;;;267.48;36.40;;;3.90;99.90;;;;;;5037935;28;20135;-91
2022/01/19 02:52:12;;;;;;;213.10;34.10;;;3.90;99.90;;;;;;5021188;28;20059;-91
2022/01/19 02:54:38;;;;;;;369.15;38.03;;;3.90;99.90;;;;;;5037777;28;20482;-91
2022/01/19 02:57:04;;;;;;;225.13;33.47;;;3.90;99.90;;;;;;5037317;28;20114;-91
2022/01/19 03:11:07;;;;;;;422.70;38.97;;;3.90;99.90;;;;;;5037541;28;20494;-91
2022/01/19 03:13:32;;;;;;;426.30;39.03;;;3.80;99.90;;;;;;5037433;28;20045;-92
2022/01/19 03:15:58;;;;;;;340.92;36.10;;;3.80;99.90;;;;;;5037258;28;20056;-92
2022/01/19 03:18:24;;;;;;;285.45;34.97;;;3.80;99.90;;;;;;5037810;28;20052;-92
2022/01/19 03:20:49;;;;;;;267.42;35.03;;;3.80;99.90;;;;;;5020631;28;20501;-91
2022/01/19 03:23:21;;;;;;;246.27;33.78;;;4.10;99.90;;;;;;5021374;28;20053;-92
2022/01/19 03:25:48;;;;;;;428.40;41.55;;;3.70;99.90;;;;;;5020355;28;20045;-91
2022/01/19 03:28:14;;;;;;;274.42;32.42;;;3.80;99.90;;;;;;5021223;28;20473;-92
2022/01/19 03:30:40;;;;;;;390.75;38.70;;;3.80;99.90;;;;;;5021069;28;20056;-94
2022/01/19 03:33:06;;;;;;;350.95;38.17;;;3.70;99.90;;;;;;5037653;28;20099;-91
2022/01/19 03:36:09;;;;;;;420.05;39.63;;;4.10;99.90;;;;;;5021172;28;20398;-91
2022/01/19 03:38:35;;;;;;;526.33;43.25;;;3.70;99.90;;;;;;5037614;28;20055;-91
2022/01/19 03:41:00;;;;;;;397.17;39.17;;;3.70;99.90;;;;;;5037212;28;20052;-91
2022/01/19 03:43:26;;;;;;;311.70;36.30;;;3.70;99.90;;;;;;5037008;28;20056;-91
2022/01/19 03:45:54;;;;;;;274.60;37.20;;;3.70;99.90;;;;;;5036577;28;20136;-91
2022/01/19 03:48:38;;;;;;;286.80;35.53;;;3.60;99.90;;;;;;5020559;28;20487;-92
2022/01/19 03:51:27;;;;;;;230.95;33.90;;;3.90;99.90;;;;;;5054111;28;20062;-92
2022/01/19 03:53:53;;;;;;;208.48;31.13;;;3.60;99.90;;;;;;5020127;28;20048;-91
2022/01/19 03:56:19;;;;;;;237.93;33.55;;;3.50;99.90;;;;;;5036628;28;20148;-92
2022/01/19 03:58:45;;;;;;;259.23;34.42;;;3.50;99.90;;;;;;5020709;28;20053;-90
2022/01/19 04:01:10;;;;;;;220.20;32.38;;;3.20;99.90;;;;;;5037255;28;20553;-91
2022/01/19 04:10:20;;;;;;;219.85;31.65;;;3.00;99.90;;;;;;5054092;28;20083;-91
2022/01/19 04:13:08;;;;;;;157.93;28.48;;;3.30;99.90;;;;;;5036744;28;20044;-91
2022/01/19 04:15:33;;;;;;;289.00;34.47;;;3.00;99.90;;;;;;5037096;28;20057;-91
2022/01/19 04:17:59;;;;;;;221.02;30.90;;;2.80;99.90;;;;;;5037595;28;20459;-90
2022/01/19 04:24:08;;;;;;;183.90;28.90;;;2.70;99.90;;;;;;5054024;28;20044;-92
2022/01/19 04:26:34;;;;;;;151.20;27.80;;;2.50;99.90;;;;;;5036123;28;20102;-91
2022/01/19 04:29:00;;;;;;;159.27;28.48;;;2.50;99.90;;;;;;5036166;28;20106;-92
2022/01/19 04:31:32;;;;;;;158.70;27.52;;;2.40;99.90;;;;;;5019675;28;20132;-91
2022/01/19 04:34:40;;;;;;;105.03;25.80;;;2.30;99.90;;;;;;5020229;28;20390;-91
2022/01/19 05:08:01;;;;;;;274.10;32.83;;;2.20;99.90;;;;;;5057328;28;20056;-91
2022/01/19 05:13:33;;;;;;;1999.90;691.10;;;2.20;99.90;;;;;;5039895;28;20148;-91
2022/01/19 05:15:59;;;;;;;1048.45;93.88;;;2.20;99.90;;;;;;5039974;28;20064;-91
2022/01/19 05:18:26;;;;;;;1394.68;129.18;;;2.20;99.90;;;;;;5023181;28;20053;-91
2022/01/19 05:24:32;;;;;;;431.02;40.40;;;2.20;99.90;;;;;;5056946;28;20071;-91
2022/01/19 05:26:58;;;;;;;1911.22;126.50;;;2.20;99.90;;;;;;5039280;28;20049;-90
2022/01/19 05:29:23;;;;;;;378.20;40.78;;;2.20;99.90;;;;;;5022530;28;20049;-91
2022/01/19 05:31:53;;;;;;;349.20;39.40;;;2.20;99.90;;;;;;5039650;28;20059;-90
2022/01/19 05:34:18;;;;;;;292.27;36.78;;;2.20;99.90;;;;;;5039717;28;20049;-90
2022/01/19 05:36:44;;;;;;;337.85;38.40;;;2.20;99.90;;;;;;5039528;28;20401;-91
2022/01/19 05:39:10;;;;;;;418.42;40.75;;;2.40;99.90;;;;;;5023892;28;20053;-91
2022/01/19 05:41:35;;;;;;;466.23;43.97;;;2.10;99.90;;;;;;5022833;28;20053;-91
2022/01/19 05:44:01;;;;;;;476.83;42.13;;;2.10;99.90;;;;;;5039433;28;20057;-91
2022/01/19 05:46:27;;;;;;;476.27;41.17;;;2.10;99.90;;;;;;5038625;28;20128;-92
2022/01/19 05:53:23;;;;;;;356.13;39.22;;;2.20;99.90;;;;;;5056607;28;20118;-91
2022/01/19 05:55:49;;;;;;;1680.63;133.32;;;2.10;99.90;;;;;;5038792;28;20078;-91
2022/01/19 05:58:15;;;;;;;350.55;40.58;;;2.10;99.90;;;;;;5039521;28;20057;-91
2022/01/19 06:00:41;;;;;;;274.05;36.10;;;2.20;99.90;;;;;;5023175;28;20144;-90
2022/01/19 06:03:07;;;;;;;247.25;35.20;;;2.20;99.90;;;;;;5039221;28;20041;-91
2022/01/19 06:05:33;;;;;;;191.95;32.83;;;2.20;99.90;;;;;;5022628;28;20060;-90
2022/01/19 06:08:12;;;;;;;214.07;34.50;;;2.40;99.90;;;;;;5022198;28;20127;-91
2022/01/19 06:10:44;;;;;;;205.93;33.22;;;2.30;99.90;;;;;;5038039;28;20061;-91
2022/01/19 06:13:15;;;;;;;200.18;35.72;;;2.30;99.90;;;;;;5022173;28;20051;-91
2022/01/19 06:15:41;;;;;;;159.05;33.90;;;2.60;99.90;;;;;;5038379;28;20195;-91
2022/01/19 06:18:07;;;;;;;118.75;27.77;;;2.40;99.90;;;;;;5038786;28;20102;-91
2022/01/19 06:20:33;;;;;;;168.27;32.50;;;2.40;99.90;;;;;;5022213;28;20144;-91
2022/01/19 06:22:59;;;;;;;157.00;31.73;;;2.40;99.90;;;;;;5038914;28;20410;-91
2022/01/19 06:25:25;;;;;;;157.52;31.00;;;2.70;99.90;;;;;;5038372;28;20115;-91
2022/01/19 06:27:50;;;;;;;144.07;31.95;;;2.50;99.90;;;;;;5038136;28;20499;-92
2022/01/19 06:30:16;;;;;;;149.10;31.85;;;2.50;99.90;;;;;;5038503;28;20057;-90
2022/01/19 06:32:41;;;;;;;156.75;32.47;;;2.60;99.90;;;;;;5038295;28;20107;-91
2022/01/19 06:38:48;;;;;;;119.22;29.63;;;2.60;99.90;;;;;;5055690;28;20089;-91
2022/01/19 06:41:14;;;;;;;126.72;31.17;;;2.70;99.90;;;;;;5020936;28;20048;-91
2022/01/19 06:43:40;;;;;;;129.85;31.33;;;2.70;99.90;;;;;;5037225;28;20045;-91
2022/01/19 06:46:05;;;;;;;119.43;30.42;;;2.70;99.90;;;;;;5021426;28;20083;-91
2022/01/19 06:48:31;;;;;;;127.72;31.30;;;2.70;99.90;;;;;;5021130;28;20048;-90
2022/01/19 06:54:38;;;;;;;124.65;31.05;;;2.80;99.90;;;;;;5055361;28;20095;-90
2022/01/19 06:57:04;;;;;;;113.32;30.80;;;3.00;99.90;;;;;;5020770;28;20056;-91
2022/01/19 06:59:29;;;;;;;105.78;31.02;;;2.80;99.90;;;;;;5037510;28;20053;-90
2022/01/19 07:01:55;;;;;;;112.78;29.90;;;2.90;99.90;;;;;;5020786;28;20079;-92
2022/01/19 07:04:49;;;;;;;95.85;28.48;;;2.80;99.90;;;;;;5037530;28;20052;-90
2022/01/19 07:07:16;;;;;;;97.32;29.25;;;2.90;99.90;;;;;;5020623;28;20494;-91
2022/01/19 07:09:43;;;;;;;94.07;28.50;;;2.80;99.90;;;;;;5037387;28;20092;-91
2022/01/19 07:12:09;;;;;;;86.90;25.88;;;2.80;99.90;;;;;;5037012;28;20088;-91
2022/01/19 07:14:34;;;;;;;91.75;29.00;;;2.80;99.90;;;;;;5037338;28;20103;-90
2022/01/19 07:17:00;;;;;;;81.35;28.73;;;2.90;99.90;;;;;;5037614;28;20052;-91
2022/01/19 07:19:26;;;;;;;79.50;27.27;;;3.00;99.90;;;;;;5020262;28;20056;-90
2022/01/19 07:21:51;;;;;;;90.43;27.92;;;2.90;99.90;;;;;;5019981;28;20167;-90
2022/01/19 07:24:18;;;;;;;70.38;26.27;;;2.80;99.90;;;;;;5041293;28;20095;-91
2022/01/19 07:26:44;;;;;;;70.80;26.20;;;3.10;99.90;;;;;;5025577;28;20064;-91
2022/01/19 07:29:09;;;;;;;71.07;26.63;;;2.90;99.90;;;;;;5020614;28;20511;-92
2022/01/19 07:31:35;;;;;;;65.93;27.73;;;3.10;99.90;;;;;;5037109;28;20056;-91
2022/01/19 07:34:02;;;;;;;68.07;27.58;;;2.90;99.90;;;;;;5020490;28;20064;-91
2022/01/19 07:36:46;;;;;;;69.68;27.70;;;3.00;99.90;;;;;;5020673;28;20064;-90
2022/01/19 07:39:14;;;;;;;73.15;28.45;;;3.00;99.90;;;;;;5036880;28;20049;-91
2022/01/19 07:41:39;;;;;;;62.08;26.67;;;3.00;99.90;;;;;;5020442;28;20558;-91
2022/01/19 07:44:06;;;;;;;71.97;28.27;;;3.00;99.90;;;;;;5036383;28;20087;-91
2022/01/19 07:46:31;;;;;;;50.67;23.67;;;3.00;99.90;;;;;;5020096;28;20049;-91
2022/01/19 07:48:57;;;;;;;58.60;27.55;;;3.30;99.90;;;;;;5036771;28;20095;-90
2022/01/19 07:51:23;;;;;;;60.47;23.90;;;3.00;99.90;;;;;;5020248;28;20138;-91
2022/01/19 07:53:49;;;;;;;61.03;25.88;;;3.00;99.90;;;;;;5020362;28;20144;-93
2022/01/19 07:56:15;;;;;;;57.35;25.05;;;3.10;99.90;;;;;;5020481;28;20088;-91
2022/01/19 07:58:41;;;;;;;58.03;25.63;;;3.00;99.90;;;;;;5020289;28;20106;-92
2022/01/19 08:01:07;;;;;;;62.33;28.35;;;3.10;99.90;;;;;;5037001;28;20049;-92
2022/01/19 08:03:33;;;;;;;57.45;26.70;;;3.00;99.90;;;;;;5037058;28;20083;-90
2022/01/19 08:09:40;;;;;;;55.37;25.60;;;3.00;99.90;;;;;;5053814;28;20063;-91
2022/01/19 08:12:07;;;;;;;51.92;24.08;;;3.10;99.90;;;;;;5036221;28;20063;-90
2022/01/19 08:14:32;;;;;;;52.60;24.63;;;3.10;99.90;;;;;;5020092;28;20064;-92
2022/01/19 08:16:58;;;;;;;53.65;25.63;;;3.00;99.90;;;;;;5036689;28;20425;-91
2022/01/19 08:19:25;;;;;;;50.47;23.55;;;3.10;99.90;;;;;;5020241;28;20059;-91
2022/01/19 08:21:51;;;;;;;64.38;26.15;;;3.10;99.90;;;;;;5020257;28;20105;-91
2022/01/19 08:24:17;;;;;;;59.28;26.23;;;3.10;99.90;;;;;;5037247;28;20147;-92
2022/01/19 08:26:43;;;;;;;53.70;25.58;;;3.30;99.90;;;;;;5036214;28;20577;-91
2022/01/19 08:29:10;;;;;;;54.58;26.50;;;3.10;99.90;;;;;;5019602;28;20486;-91
2022/01/19 08:31:36;;;;;;;60.85;26.80;;;3.10;99.90;;;;;;5036366;28;20374;-91
2022/01/19 08:34:02;;;;;;;57.88;26.33;;;3.20;99.90;;;;;;5023082;28;20049;-91
2022/01/19 08:36:46;;;;;;;55.28;26.67;;;3.30;99.90;;;;;;5024237;28;20379;-92
2022/01/19 08:39:12;;;;;;;58.92;27.80;;;3.20;99.90;;;;;;5042055;28;20049;-92
2022/01/19 08:41:38;;;;;;;58.17;27.05;;;3.20;99.90;;;;;;5026712;28;20191;-91
2022/01/19 08:44:04;;;;;;;62.08;27.92;;;3.20;99.90;;;;;;5025399;28;20048;-91
2022/01/19 08:46:29;;;;;;;64.22;29.10;;;3.20;99.90;;;;;;5041462;28;20486;-91
2022/01/19 08:48:55;;;;;;;60.63;29.92;;;3.20;99.90;;;;;;5027737;28;20161;-91
2022/01/19 08:51:21;;;;;;;60.70;27.77;;;3.30;99.90;;;;;;5025673;28;20080;-92
2022/01/19 08:53:46;;;;;;;70.93;31.25;;;3.20;99.90;;;;;;5025054;28;20084;-91
2022/01/19 08:56:12;;;;;;;63.22;30.75;;;3.70;99.90;;;;;;5023960;28;20529;-91
2022/01/19 08:58:39;;;;;;;59.92;29.23;;;3.30;99.90;;;;;;5023397;28;20144;-92
2022/01/19 09:01:05;;;;;;;62.25;29.98;;;3.50;99.90;;;;;;5023979;28;20398;-91
2022/01/19 09:03:31;;;;;;;58.22;30.20;;;3.50;99.90;;;;;;5040292;28;20049;-91
2022/01/19 09:06:34;;;;;;;56.63;28.88;;;3.40;99.90;;;;;;5023495;28;20044;-91
2022/01/19 09:09:00;;;;;;;57.03;27.90;;;3.40;99.90;;;;;;5023477;28;20154;-92
2022/01/19 09:11:25;;;;;;;56.15;29.45;;;3.70;99.90;;;;;;5039460;28;20089;-91
2022/01/19 09:13:51;;;;;;;58.60;27.85;;;3.70;99.90;;;;;;5039819;28;20053;-92
2022/01/19 09:16:17;;;;;;;55.90;27.83;;;4.00;99.90;;;;;;5039808;28;20122;-91
2022/01/19 09:18:43;;;;;;;54.45;28.10;;;3.50;99.90;;;;;;5023445;28;20060;-92
2022/01/19 09:21:09;;;;;;;58.75;29.05;;;3.70;99.90;;;;;;5022750;28;20053;-92
2022/01/19 09:23:37;;;;;;;54.13;27.95;;;3.50;99.90;;;;;;5023175;28;20044;-93
2022/01/19 09:26:04;;;;;;;65.15;28.50;;;3.50;99.90;;;;;;5023250;28;20053;-92
2022/01/19 09:28:30;;;;;;;69.05;32.72;;;3.60;99.90;;;;;;5022865;28;20107;-92
2022/01/19 09:31:01;;;;;;;60.20;28.88;;;3.70;99.90;;;;;;5022546;28;20049;-91
2022/01/19 09:33:30;;;;;;;62.25;29.80;;;3.70;99.90;;;;;;5023909;28;20060;-93
2022/01/19 09:38:37;;;;;;;61.10;30.63;;;3.80;99.90;;;;;;5039491;28;20057;-94
2022/01/19 09:41:06;;;;;;;63.47;30.98;;;3.80;99.90;;;;;;5023126;28;20079;-94
2022/01/19 09:43:32;;;;;;;58.33;28.88;;;3.80;99.90;;;;;;5022678;28;20116;-92
2022/01/19 09:46:00;;;;;;;61.65;29.92;;;4.10;99.90;;;;;;5021016;28;20049;-92
2022/01/19 09:48:27;;;;;;;68.30;32.50;;;3.80;99.90;;;;;;5022899;28;20056;-92
2022/01/19 09:50:54;;;;;;;65.82;30.48;;;3.90;99.90;;;;;;5039280;28;20140;-92
2022/01/19 09:53:20;;;;;;;69.93;31.45;;;3.80;99.90;;;;;;5022829;28;20132;-93
2022/01/19 09:55:47;;;;;;;57.58;29.08;;;4.10;99.90;;;;;;5022694;28;20056;-92
2022/01/19 09:58:13;;;;;;;74.45;32.53;;;3.80;99.90;;;;;;5024401;28;20557;-92
2022/01/19 10:00:40;;;;;;;68.28;32.42;;;3.90;99.90;;;;;;5022218;28;20132;-92
2022/01/19 10:03:22;;;;;;;69.68;33.10;;;4.00;99.90;;;;;;5022366;28;20061;-92
2022/01/19 10:06:02;;;;;;;67.07;33.33;;;4.00;99.90;;;;;;5038908;28;20142;-93
2022/01/19 10:08:42;;;;;;;72.60;34.95;;;4.00;99.90;;;;;;5038770;28;20045;-92
2022/01/19 10:11:25;;;;;;;75.50;34.75;;;4.10;99.90;;;;;;5022142;28;20064;-91
2022/01/19 10:16:59;;;;;;;67.97;32.20;;;4.10;99.90;;;;;;5038594;28;20476;-94
2022/01/19 10:19:26;;;;;;;72.20;34.92;;;4.10;99.90;;;;;;5021813;28;20080;-93
2022/01/19 10:22:01;;;;;;;78.10;36.80;;;4.10;99.90;;;;;;5021765;28;20138;-92
2022/01/19 10:24:50;;;;;;;77.15;35.42;;;4.00;99.90;;;;;;5021896;28;20048;-92
2022/01/19 10:27:22;;;;;;;82.32;36.40;;;4.00;99.90;;;;;;5037847;28;20045;-92
2022/01/19 10:29:49;;;;;;;79.63;35.25;;;4.00;99.90;;;;;;5037856;28;20080;-93
2022/01/19 10:32:16;;;;;;;78.82;36.45;;;4.00;99.90;;;;;;5038349;28;20136;-92
2022/01/19 10:35:20;;;;;;;91.30;37.70;;;4.00;99.90;;;;;;5038276;28;20119;-92
2022/01/19 10:37:47;;;;;;;83.75;38.00;;;4.00;99.90;;;;;;5021600;28;20140;-91
2022/01/19 10:40:15;;;;;;;83.18;37.00;;;4.00;99.90;;;;;;5021450;28;20063;-92
2022/01/19 10:42:41;;;;;;;81.25;36.95;;;4.10;99.90;;;;;;5018306;28;20061;-92
2022/01/19 10:45:09;;;;;;;92.70;37.30;;;4.00;99.90;;;;;;5018622;28;20056;-94
2022/01/19 10:47:49;;;;;;;87.45;37.85;;;4.10;99.90;;;;;;5018147;28;20501;-92
2022/01/19 10:50:32;;;;;;;82.97;38.83;;;4.10;99.90;;;;;;5018112;28;20052;-93
2022/01/19 10:53:00;;;;;;;94.05;40.53;;;4.10;99.90;;;;;;5018374;28;20084;-91
2022/01/19 10:55:26;;;;;;;99.10;41.40;;;4.30;99.90;;;;;;5018135;28;20054;-92
2022/01/19 10:57:53;;;;;;;98.20;41.83;;;4.10;99.90;;;;;;5018344;28;20068;-92
2022/01/19 11:00:37;;;;;;;94.88;40.83;;;4.40;99.90;;;;;;5018311;28;20100;-92
2022/01/19 11:03:21;;;;;;;105.90;42.40;;;4.20;99.90;;;;;;5018119;28;20454;-93
2022/01/19 11:05:51;;;;;;;88.68;38.13;;;4.40;99.90;;;;;;5035015;28;20057;-91
2022/01/19 11:08:19;;;;;;;103.25;42.05;;;4.10;99.90;;;;;;5018209;28;20140;-91
2022/01/19 11:10:49;;;;;;;102.43;39.70;;;4.30;99.90;;;;;;5033791;28;20053;-94
2022/01/19 11:13:25;;;;;;;93.95;38.40;;;4.20;99.90;;;;;;5018227;28;20092;-91
2022/01/19 11:15:51;;;;;;;105.03;41.95;;;4.30;99.90;;;;;;5034310;28;20057;-92
2022/01/19 11:18:19;;;;;;;98.20;43.17;;;4.30;99.90;;;;;;5018010;28;20376;-91
2022/01/19 11:20:47;;;;;;;114.07;45.25;;;4.30;99.90;;;;;;5034353;28;20092;-92
2022/01/19 11:23:38;;;;;;;110.68;44.22;;;4.30;99.90;;;;;;5017804;28;20061;-92
2022/01/19 11:26:05;;;;;;;113.07;44.15;;;4.30;99.90;;;;;;5018005;28;20509;-91
2022/01/19 11:28:39;;;;;;;116.43;45.35;;;4.30;99.90;;;;;;5017789;28;20059;-91
2022/01/19 11:31:20;;;;;;;123.57;45.47;;;4.40;99.90;;;;;;5017749;28;20475;-93
2022/01/19 11:33:57;;;;;;;;;;;4.20;99.90;;;;;;5018922;28;20510;-91
2022/01/19 11:36:29;;;;;;;117.95;44.38;;;4.20;99.90;;;;;;5017531;28;19925;-93
2022/01/19 11:39:09;;;;;;;129.82;46.15;;;4.20;99.90;;;;;;5033795;28;20053;-91
2022/01/19 11:41:46;;;;;;;132.15;47.90;;;4.20;99.90;;;;;;5016822;28;20056;-91
2022/01/19 11:44:17;;;;;;;143.35;49.53;;;4.20;99.90;;;;;;5016845;28;20102;-92
2022/01/19 11:46:52;;;;;;;;;;;4.20;99.90;;;;;;5018214;28;20118;-92
2022/01/19 11:50:09;;;;;;;120.00;45.55;;;4.20;99.90;;;;;;5033733;28;19979;-92
2022/01/19 11:52:38;;;;;;;125.60;45.13;;;4.10;99.90;;;;;;5017209;28;20049;-92
2022/01/19 11:55:22;;;;;;;117.63;44.92;;;4.10;99.90;;;;;;5017871;28;20140;-93
2022/01/19 11:58:09;;;;;;;131.55;46.33;;;4.10;99.90;;;;;;5017497;28;20063;-93
2022/01/19 12:00:36;;;;;;;123.65;45.10;;;4.10;99.90;;;;;;5033651;28;20149;-93
2022/01/19 12:03:26;;;;;;;117.40;44.50;;;4.30;99.90;;;;;;5033195;28;20061;-91
2022/01/19 12:05:53;;;;;;;119.18;45.88;;;4.20;99.90;;;;;;5017250;28;20465;-91
2022/01/19 12:08:35;;;;;;;124.35;47.60;;;4.30;99.90;;;;;;5016392;28;20056;-92
2022/01/19 12:11:18;;;;;;;114.35;44.95;;;4.30;99.90;;;;;;5017150;28;20053;-93
2022/01/19 12:19:13;;;;;;;114.00;44.10;;;4.40;99.90;;;;;;5033631;28;20072;-93
2022/01/19 12:21:50;;;;;;;106.07;43.90;;;4.40;99.90;;;;;;5017751;28;20057;-93
2022/01/19 12:24:26;;;;;;;108.65;44.17;;;4.30;99.90;;;;;;5017820;28;20053;-93
2022/01/19 12:26:59;;;;;;;95.07;40.45;;;4.30;99.90;;;;;;5017344;28;20168;-93
2022/01/19 12:29:51;;;;;;;109.43;43.88;;;4.30;99.90;;;;;;5016915;28;20064;-92
2022/01/19 12:32:23;;;;;;;100.95;39.75;;;4.40;99.90;;;;;;5030999;28;20053;-92
2022/01/19 12:35:18;;;;;;;97.13;43.83;;;4.60;99.90;;;;;;5016868;28;20398;-95
2022/01/19 12:37:55;;;;;;;92.97;39.65;;;4.40;99.90;;;;;;5017021;28;20118;-92
2022/01/19 12:40:40;;;;;;;99.20;43.63;;;4.50;99.90;;;;;;5016558;28;20056;-95
2022/01/19 12:43:09;;;;;;;96.30;43.30;;;4.50;99.90;;;;;;5016409;28;20609;-94
2022/01/19 12:45:48;;;;;;;88.97;39.03;;;4.50;99.90;;;;;;5016993;28;20046;-94
2022/01/19 12:48:32;;;;;;;96.10;41.58;;;4.50;99.90;;;;;;5016739;28;20109;-92
2022/01/19 12:50:58;;;;;;;97.70;42.17;;;4.50;99.90;;;;;;5016675;28;20459;-94
2022/01/19 12:53:25;;;;;;;99.72;42.03;;;4.70;99.90;;;;;;5016595;28;20091;-94
2022/01/19 12:56:03;;;;;;;105.80;45.05;;;4.90;99.90;;;;;;5016168;28;20146;-95
2022/01/19 12:58:35;;;;;;;102.22;43.90;;;4.90;99.90;;;;;;5017023;28;20116;-94
2022/01/19 13:01:06;;;;;;;117.38;47.58;;;4.50;99.90;;;;;;5016829;28;20061;-93
2022/01/19 13:03:40;;;;;;;111.00;47.45;;;4.50;99.90;;;;;;5033397;28;20059;-93
2022/01/19 13:06:13;;;;;;;103.05;42.47;;;4.50;99.90;;;;;;5016206;28;20049;-94
2022/01/19 13:08:58;;;;;;;105.93;45.05;;;4.50;99.90;;;;;;5016799;28;20126;-92
2022/01/19 13:11:40;;;;;;;107.45;45.42;;;4.50;99.90;;;;;;5017020;28;20053;-94
2022/01/19 13:14:08;;;;;;;109.28;44.88;;;4.60;99.90;;;;;;5015983;28;20057;-92
2022/01/19 13:16:41;;;;;;;102.55;44.83;;;4.50;99.90;;;;;;5016267;28;20053;-91
2022/01/19 13:19:19;;;;;;;104.15;44.85;;;4.60;99.90;;;;;;5034335;28;20388;-92
2022/01/19 13:21:48;;;;;;;100.10;45.08;;;4.80;99.90;;;;;;5019724;28;20398;-92
2022/01/19 13:24:24;;;;;;;103.53;43.63;;;4.70;99.90;;;;;;5037891;28;20053;-93
2022/01/19 13:26:54;;;;;;;88.80;40.75;;;4.70;99.90;;;;;;5028301;28;20088;-93
2022/01/19 13:29:23;;;;;;;97.72;41.55;;;5.00;99.90;;;;;;5024252;28;20061;-93
2022/01/19 13:32:12;;;;;;;81.05;36.13;;;5.10;99.90;;;;;;5021080;28;20056;-94
2022/01/19 13:34:57;;;;;;;90.03;41.83;;;4.80;99.90;;;;;;5020237;28;20080;-93
2022/01/19 13:37:24;;;;;;;84.43;39.08;;;4.90;99.90;;;;;;5021431;28;20059;-91
2022/01/19 13:40:09;;;;;;;85.43;38.47;;;4.90;99.90;;;;;;5020665;28;20160;-94
2022/01/19 13:42:41;;;;;;;84.85;41.13;;;5.00;99.90;;;;;;5019615;28;20085;-93
2022/01/19 13:45:13;;;;;;;82.10;40.22;;;5.10;99.90;;;;;;5036285;28;20042;-93
2022/01/19 13:50:42;;;;;;;77.80;37.05;;;5.20;99.90;;;;;;5036080;28;20053;-92
2022/01/19 13:53:08;;;;;;;77.43;37.67;;;5.20;99.90;;;;;;5035654;28;20061;-94
2022/01/19 13:55:35;;;;;;;84.05;39.25;;;5.20;99.90;;;;;;5019519;28;20061;-94
2022/01/19 13:58:09;;;;;;;67.05;32.20;;;5.20;99.90;;;;;;5019590;28;20049;-92
2022/01/19 14:00:36;;;;;;;79.43;39.35;;;5.20;99.90;;;;;;5019505;28;20084;-92
2022/01/19 14:03:04;;;;;;;76.72;37.58;;;5.40;99.90;;;;;;5019296;28;20538;-92
2022/01/19 14:05:43;;;;;;;70.68;36.65;;;5.20;99.90;;;;;;5019678;28;20525;-92
2022/01/19 14:08:10;;;;;;;75.90;35.95;;;5.40;99.90;;;;;;5019520;28;20050;-93
2022/01/19 14:10:47;;;;;;;71.15;33.63;;;5.30;99.90;;;;;;5019340;28;20185;-93
2022/01/19 14:13:40;;;;;;;72.97;34.55;;;5.10;99.90;;;;;;5018906;28;20053;-93
2022/01/19 14:16:26;;;;;;;69.75;35.13;;;5.30;99.90;;;;;;5032057;28;20060;-93
2022/01/19 14:19:14;;;;;;;74.65;35.13;;;5.50;99.90;;;;;;5018953;28;20057;-94
2022/01/19 14:21:58;;;;;;;68.00;32.83;;;5.30;99.90;;;;;;5019143;28;20061;-93
2022/01/19 14:24:26;;;;;;;68.70;31.23;;;5.40;99.90;;;;;;5019521;28;20438;-93
2022/01/19 14:26:55;;;;;;;76.95;34.40;;;5.70;99.90;;;;;;5018002;28;20060;-93
2022/01/19 14:29:21;;;;;;;76.97;36.47;;;5.40;99.90;;;;;;5018837;28;20093;-94
2022/01/19 14:31:50;;;;;;;75.40;35.15;;;5.20;99.90;;;;;;5017789;28;20061;-92
2022/01/19 14:34:16;;;;;;;78.45;34.47;;;5.20;99.90;;;;;;5018137;28;20092;-92
2022/01/19 14:36:42;;;;;;;80.15;34.50;;;5.10;99.90;;;;;;5018192;28;20096;-92
2022/01/19 14:39:08;;;;;;;87.13;35.42;;;5.40;99.90;;;;;;5018339;28;20080;-92
2022/01/19 14:41:37;;;;;;;141.50;38.08;;;5.00;99.90;;;;;;5017545;28;20061;-92
2022/01/19 14:44:20;;;;;;;89.32;35.10;;;5.00;99.90;;;;;;5016907;28;20148;-91
2022/01/19 14:47:05;;;;;;;133.07;39.03;;;4.90;99.90;;;;;;5016646;28;20092;-91
2022/01/19 14:49:31;;;;;;;90.60;35.33;;;5.00;99.90;;;;;;5017838;28;20053;-92
2022/01/19 14:51:57;;;;;;;77.63;36.25;;;4.90;99.90;;;;;;5017374;28;20085;-94
2022/01/19 14:54:25;;;;;;;94.32;38.70;;;5.00;99.90;;;;;;5017825;28;20061;-92
2022/01/19 14:56:51;;;;;;;87.30;36.50;;;4.90;99.90;;;;;;5017566;28;20053;-92
2022/01/19 14:59:22;;;;;;;90.38;38.15;;;5.10;99.90;;;;;;5017772;28;20053;-93
2022/01/19 15:01:52;;;;;;;90.28;35.40;;;4.90;99.90;;;;;;5018003;28;20057;-92
2022/01/19 15:04:18;;;;;;;102.20;37.75;;;4.90;99.90;;;;;;5017693;28;20404;-92